South Bowie, Maryland
Current Conditions -  °F | °C
As of 3:54 PM on Thursday 23 Oct 2014 (Local Time) from KFME Reporting Station
Overcast Overcast  
Wind Chill: 61°   Ceiling: 4500
Heat Index: 61°   Visibility: 10mi
Dew Point: 45°   Wind: 7mph
Humidity: 55%   Direction: 320°NW
Pressure: 29.86"   Gusts: NA
Location:  38.927°N, 76.7149°W
Report Text: KFME 231954Z AUTO 32006KT 10SM OVC045 16/07 A2986 RMK AO1
Loading
Personal Weather Stations






























Interactive Weather Map
Tropical Storm Tracking
New forecast layout! Learn more

10-Day Weather Forecast

Advertisements
Track Severe Weather on mobile